Time;durP1;ratioP1;P1;durP2;ratioP2;P2;SDS_P1;SDS_P2;PMS_P1;PMS_P2;Temp;Humidity;BMP_temperature;BMP_pressure;BME280_temperature;BME280_humidity;BME280_pressure;Samples;Min_cycle;Max_cycle;Signal;HPM_P1;HPM_P2
2022/05/15 04:31:55;;;;;;;;;4.00;4.00;;;;;19.71;42.56;101152.63;1428303;25;46235;-74
2022/05/15 04:34:27;;;;;;;;;3.75;3.75;;;;;19.62;42.87;101135.16;5072270;28;45358;-74
2022/05/15 04:36:54;;;;;;;;;4.25;4.25;;;;;19.78;42.89;101164.75;5066177;28;45541;-72
2022/05/15 04:39:20;;;;;;;;;3.50;3.50;;;;;19.71;42.47;101147.19;5073622;28;46397;-72
2022/05/15 04:41:46;;;;;;;;;6.25;5.00;;;;;19.77;42.85;101162.16;5057888;28;45334;-73
2022/05/15 04:44:12;;;;;;;;;5.00;5.00;;;;;19.69;42.67;101142.84;5054195;28;45305;-74
2022/05/15 04:46:38;;;;;;;;;4.00;4.00;;;;;19.74;42.63;101156.94;5070042;28;45395;-74
2022/05/15 04:49:05;;;;;;;;;3.75;3.75;;;;;19.73;42.73;101163.41;5073996;28;45566;-73
2022/05/15 04:51:31;;;;;;;;;2.75;2.75;;;;;19.77;42.59;101167.59;5073621;28;45478;-72
2022/05/15 04:53:56;;;;;;;;;8.50;4.00;;;;;19.72;43.03;101170.69;5074220;28;45324;-72
2022/05/15 04:56:22;;;;;;;;;4.75;3.25;;;;;19.56;42.94;101142.94;5074143;28;45361;-72
2022/05/15 04:58:48;;;;;;;;;3.25;3.25;;;;;19.74;43.00;101171.41;5073997;28;45394;-74
2022/05/15 05:01:13;;;;;;;;;3.50;3.50;;;;;19.69;42.67;101164.59;5073889;28;45629;-73
2022/05/15 05:03:39;;;;;;;;;4.75;4.75;;;;;19.70;43.25;101179.94;5060029;28;45407;-73
2022/05/15 05:06:04;;;;;;;;;4.25;4.00;;;;;19.74;43.22;101186.88;5057352;28;45253;-74
2022/05/15 05:08:30;;;;;;;;;6.00;4.75;;;;;19.74;43.33;101187.75;5060125;28;45612;-73
2022/05/15 05:10:55;;;;;;;;;4.00;4.00;;;;;19.76;42.71;101187.63;5059995;28;45431;-73
2022/05/15 05:13:21;;;;;;;;;4.00;4.00;;;;;19.78;43.14;101188.38;5070240;28;45528;-71
2022/05/15 05:15:46;;;;;;;;;5.25;5.25;;;;;19.76;43.55;101171.31;5073097;28;45327;-75
2022/05/15 05:18:17;;;;;;;;;4.50;4.50;;;;;19.81;42.73;101182.72;5073456;28;46260;-73
2022/05/15 05:20:43;;;;;;;;;4.00;3.00;;;;;19.72;42.80;101169.81;5074004;28;45284;-73
2022/05/15 05:23:08;;;;;;;;;4.00;4.00;;;;;19.78;43.37;101182.94;5073640;28;45444;-75
2022/05/15 05:25:34;;;;;;;;;4.50;4.00;;;;;19.79;43.04;101176.53;5073603;28;45501;-74
2022/05/15 05:28:00;;;;;;;;;3.75;3.00;;;;;19.87;43.38;101194.00;5058727;28;46580;-74
2022/05/15 05:30:26;;;;;;;;;8.50;5.50;;;;;19.87;42.63;101187.69;5052796;28;45469;-73
2022/05/15 05:32:52;;;;;;;;;3.00;3.00;;;;;19.87;42.92;101190.41;5048456;28;45414;-75
2022/05/15 05:35:19;;;;;;;;;5.25;5.25;;;;;19.84;43.25;101182.47;5073454;28;45648;-73
2022/05/15 05:37:45;;;;;;;;;4.00;4.00;;;;;19.81;42.78;101180.00;5072414;28;46066;-72
2022/05/15 05:40:11;;;;;;;;;4.00;4.00;;;;;19.86;42.67;101184.09;5073236;28;45691;-73
2022/05/15 05:42:36;;;;;;;;;3.75;3.75;;;;;19.88;42.56;101197.56;5073321;28;45323;-72
2022/05/15 05:45:03;;;;;;;;;3.75;3.50;;;;;19.88;42.90;101190.28;5073907;28;45363;-73
2022/05/15 05:47:30;;;;;;;;;3.50;3.50;;;;;19.94;42.60;101194.38;5073348;28;46333;-74
2022/05/15 05:49:56;;;;;;;;;4.50;4.50;;;;;19.96;42.80;101181.50;5055161;28;45344;-76
2022/05/15 05:52:23;;;;;;;;;4.50;4.00;;;;;20.02;42.61;101183.75;5071320;28;45392;-73
2022/05/15 05:54:48;;;;;;;;;1.75;1.75;;;;;20.05;42.28;101186.25;5072855;28;45343;-74
2022/05/15 05:57:14;;;;;;;;;4.00;4.00;;;;;20.09;42.39;101178.69;5072275;28;45391;-74
2022/05/15 05:59:39;;;;;;;;;6.50;4.00;;;;;20.12;42.27;101182.03;5073462;28;45475;-75
2022/05/15 06:02:06;;;;;;;;;4.75;4.75;;;;;20.12;42.02;101173.00;5073235;28;45543;-74
2022/05/15 06:04:44;;;;;;;;;4.00;4.00;;;;;20.23;42.16;101178.47;5073271;28;45391;-75
2022/05/15 06:07:23;;;;;;;;;5.50;4.00;;;;;20.26;42.02;101176.38;5072155;28;45518;-73
2022/05/15 06:09:50;;;;;;;;;3.50;3.50;;;;;20.31;41.72;101185.06;5073147;28;45394;-75
2022/05/15 06:12:19;;;;;;;;;3.75;3.75;;;;;20.35;41.46;101183.84;5051053;28;45383;-75
2022/05/15 06:14:45;;;;;;;;;5.25;4.00;;;;;20.39;42.04;101182.63;5072889;28;45597;-75
2022/05/15 06:17:11;;;;;;;;;5.50;3.00;;;;;20.41;41.30;101181.63;5072207;28;45525;-73
2022/05/15 06:19:37;;;;;;;;;4.75;4.00;;;;;20.49;41.47;101181.88;5072697;28;45332;-75
2022/05/15 06:22:04;;;;;;;;;4.25;2.50;;;;;20.51;41.13;101183.47;5068873;28;45335;-73
2022/05/15 06:24:30;;;;;;;;;4.75;4.75;;;;;20.50;40.77;101170.84;5052724;28;45332;-74
2022/05/15 06:27:02;;;;;;;;;4.00;3.75;;;;;20.61;41.15;101172.69;5035154;28;47206;-73
2022/05/15 06:29:28;;;;;;;;;3.50;3.50;;;;;20.63;40.77;101171.59;5042874;28;45470;-74
2022/05/15 06:31:53;;;;;;;;;3.00;3.00;;;;;20.68;40.58;101177.53;5066169;28;45416;-74
2022/05/15 06:34:19;;;;;;;;;4.00;4.00;;;;;20.72;40.21;101176.31;5040304;28;45559;-75
2022/05/15 06:36:44;;;;;;;;;2.75;2.75;;;;;20.75;40.52;101177.91;5037529;28;46326;-76
2022/05/15 06:39:10;;;;;;;;;3.00;2.25;;;;;20.77;40.22;101182.22;5051908;28;45383;-74
2022/05/15 06:41:35;;;;;;;;;6.25;4.00;;;;;20.80;40.20;101180.25;5052832;28;45347;-74
2022/05/15 06:44:01;;;;;;;;;3.00;3.00;;;;;20.73;40.47;101169.88;5056854;28;45557;-73
2022/05/15 06:46:27;;;;;;;;;3.50;3.50;;;;;20.78;39.88;101185.81;5057210;28;45348;-72
2022/05/15 06:48:52;;;;;;;;;3.00;3.00;;;;;20.83;40.29;101190.91;5039148;28;45411;-73
2022/05/15 06:51:18;;;;;;;;;4.00;4.00;;;;;20.85;40.43;101189.78;5057314;28;45415;-75
2022/05/15 06:53:44;;;;;;;;;5.00;3.75;;;;;20.91;40.22;101186.56;5057435;28;45379;-76
2022/05/15 06:58:54;;;;;;;;;4.00;4.00;;;;;20.93;40.19;101168.22;5057030;28;45295;-72
2022/05/15 07:01:20;;;;;;;;;2.25;2.25;;;;;21.03;40.22;101174.63;5057648;28;45725;-72
2022/05/15 07:03:45;;;;;;;;;2.50;2.50;;;;;21.06;40.29;101166.22;5056895;28;46168;-74
2022/05/15 07:06:11;;;;;;;;;5.25;3.00;;;;;21.01;40.07;101143.06;5054583;28;46029;-74
2022/05/15 07:08:37;;;;;;;;;3.00;3.00;;;;;21.10;40.06;101162.22;5037019;28;45407;-74
2022/05/15 07:11:03;;;;;;;;;2.25;2.25;;;;;21.17;40.20;101165.38;5044615;28;45394;-74
2022/05/15 07:13:28;;;;;;;;;3.00;3.00;;;;;21.14;40.21;101141.03;5056419;28;45492;-76
2022/05/15 07:15:54;;;;;;;;;3.50;3.50;;;;;21.27;40.03;101151.78;5038851;28;45878;-83
2022/05/15 07:18:23;;;;;;;;;2.75;2.75;;;;;21.30;39.57;101155.16;5036773;28;45375;-73
2022/05/15 07:20:49;;;;;;;;;5.25;3.25;;;;;21.31;39.89;101150.56;5018900;28;45237;-76
2022/05/15 07:23:15;;;;;;;;;3.25;3.25;;;;;21.34;39.82;101148.44;5036895;28;45455;-75
2022/05/15 07:25:40;;;;;;;;;5.00;3.00;;;;;21.24;39.55;101114.75;5022757;28;46230;-77
2022/05/15 07:28:05;;;;;;;;;3.00;3.00;;;;;21.38;39.65;101141.72;5029712;28;46063;-78
2022/05/15 07:30:31;;;;;;;;;2.75;2.75;;;;;21.41;39.54;101133.28;5056970;28;45284;-71
2022/05/15 07:32:56;;;;;;;;;4.50;3.00;;;;;21.43;39.39;101134.03;5069206;28;45338;-70
2022/05/15 07:35:22;;;;;;;;;5.00;3.00;;;;;21.47;39.75;101137.34;5075369;28;46226;-70
2022/05/15 07:37:47;;;;;;;;;2.75;2.75;;;;;21.49;39.61;101119.88;5077065;28;45677;-70
2022/05/15 07:40:12;;;;;;;;;3.00;3.00;;;;;21.59;38.96;101130.00;5076970;28;45527;-70
2022/05/15 07:42:39;;;;;;;;;2.25;2.25;;;;;21.44;39.41;101100.28;5058710;28;47645;-70
2022/05/15 07:45:05;;;;;;;;;3.00;3.00;;;;;21.60;39.00;101118.09;5075273;28;47311;-71
2022/05/15 07:47:30;;;;;;;;;3.00;3.00;;;;;21.68;38.88;101110.09;5076701;28;45401;-70
2022/05/15 07:49:56;;;;;;;;;5.00;3.00;;;;;21.82;38.60;101123.41;5058292;28;45367;-71
2022/05/15 07:52:22;;;;;;;;;3.00;3.00;;;;;21.85;38.62;101109.50;5076065;28;45394;-70
2022/05/15 07:54:49;;;;;;;;;2.75;2.75;;;;;21.90;38.52;101107.22;5076751;28;46124;-71
2022/05/15 07:57:15;;;;;;;;;7.67;3.00;;;;;22.04;38.05;101123.28;5076489;28;45220;-70
2022/05/15 07:59:40;;;;;;;;;2.50;2.50;;;;;22.05;38.33;101110.50;5076813;28;45351;-71
2022/05/15 08:02:06;;;;;;;;;4.75;3.00;;;;;22.14;38.27;101098.75;5076528;28;45220;-75
2022/05/15 08:10:01;;;;;;;;;2.75;2.75;;;;;22.39;37.29;101086.50;5061244;28;45403;-72
2022/05/15 08:12:27;;;;;;;;;2.00;2.00;;;;;22.42;37.04;101081.63;5057765;28;45228;-77
2022/05/15 08:14:52;;;;;;;;;3.50;3.50;;;;;22.44;37.05;101076.03;5066130;28;45987;-79
2022/05/15 08:17:17;;;;;;;;;3.50;2.75;;;;;22.41;37.28;101054.44;5057595;28;45363;-73
2022/05/15 08:25:15;;;;;;;;;2.00;2.00;;;;;22.63;36.93;101040.56;5076174;28;45541;-75
2022/05/15 08:27:40;;;;;;;;;3.00;3.00;;;;;22.80;36.90;101052.69;5075958;28;45475;-78
2022/05/15 08:30:07;;;;;;;;;3.00;3.00;;;;;22.86;36.66;101061.22;5076354;28;45346;-74
2022/05/15 08:32:32;;;;;;;;;4.00;4.00;;;;;22.86;37.00;101054.88;5075873;28;45323;-79
2022/05/15 08:35:00;;;;;;;;;3.00;2.25;;;;;22.94;36.21;101060.50;5075432;28;45819;-73
2022/05/15 08:37:25;;;;;;;;;2.00;2.00;;;;;22.92;36.52;101060.66;5075800;28;45316;-73
2022/05/15 08:39:52;;;;;;;;;3.00;3.00;;;;;22.97;35.88;101052.88;5075825;28;45503;-74
2022/05/15 08:42:33;;;;;;;;;3.00;3.00;;;;;23.01;35.98;101058.94;5075827;28;45505;-73
2022/05/15 08:45:01;;;;;;;;;3.00;3.00;;;;;23.02;35.70;101053.31;5076122;28;45712;-74
2022/05/15 08:47:37;;;;;;;;;3.50;2.75;;;;;23.07;36.07;101044.66;5075618;28;45358;-74
2022/05/15 08:50:24;;;;;;;;;3.00;3.00;;;;;23.10;35.76;101038.06;5075522;28;45373;-75
2022/05/15 08:53:01;;;;;;;;;5.00;3.50;;;;;23.20;35.90;101049.88;5075242;28;45423;-74
2022/05/15 08:55:38;;;;;;;;;3.00;3.00;;;;;23.26;35.66;101046.56;5062638;28;46512;-75
2022/05/15 08:58:08;;;;;;;;;2.00;2.00;;;;;23.31;35.47;101041.50;5044799;28;45295;-74
2022/05/15 09:00:51;;;;;;;;;3.50;1.75;;;;;23.41;35.19;101045.09;5074954;28;45498;-71
2022/05/15 09:03:17;;;;;;;;;2.00;2.00;;;;;23.47;35.67;101036.31;5075704;28;45229;-74
2022/05/15 09:05:54;;;;;;;;;2.75;2.75;;;;;23.54;34.63;101037.50;5074444;28;45500;-75
2022/05/15 09:08:38;;;;;;;;;3.75;3.75;;;;;23.59;35.38;101037.91;5075385;28;45358;-74
2022/05/15 09:11:07;;;;;;;;;5.00;3.75;;;;;23.67;34.73;101048.09;5074931;28;45568;-75
2022/05/15 09:13:41;;;;;;;;;4.50;4.25;;;;;23.73;35.04;101053.03;5073239;28;45393;-74
2022/05/15 09:16:23;;;;;;;;;4.75;3.00;;;;;23.79;34.41;101037.88;5055225;28;46302;-74
2022/05/15 09:18:48;;;;;;;;;5.75;5.75;;;;;23.87;35.41;101032.50;5054720;28;45513;-75
2022/05/15 09:21:15;;;;;;;;;4.75;4.75;;;;;23.90;35.11;101024.88;5055466;28;45492;-74
2022/05/15 09:23:47;;;;;;;;;2.75;2.75;;;;;23.92;35.26;101013.75;5054849;28;45323;-76
2022/05/15 09:26:41;;;;;;;;;2.50;2.50;;;;;24.01;34.70;101032.00;5054838;28;46338;-74
2022/05/15 09:29:15;;;;;;;;;3.50;3.50;;;;;24.00;35.24;101013.84;5065363;28;45511;-74
2022/05/15 09:31:42;;;;;;;;;4.75;4.25;;;;;24.10;34.80;101022.91;5074854;28;45397;-74
2022/05/15 09:34:19;;;;;;;;;3.25;3.25;;;;;24.13;34.96;101017.13;5075070;28;45343;-75
2022/05/15 09:36:45;;;;;;;;;3.00;3.00;;;;;24.09;34.23;101005.59;5074762;28;46155;-75
2022/05/15 09:39:20;;;;;;;;;2.25;2.25;;;;;24.20;33.78;101014.63;5074985;28;45418;-75
2022/05/15 09:44:57;;;;;;;;;1.75;1.75;;;;;24.32;33.28;101017.06;5075072;28;45448;-76
2022/05/15 09:47:33;;;;;;;;;2.50;2.50;;;;;24.40;33.41;101013.56;5075094;28;45362;-75
2022/05/15 09:49:59;;;;;;;;;2.00;2.00;;;;;24.34;32.64;100978.53;5062220;28;45426;-73
2022/05/15 09:52:42;;;;;;;;;1.75;1.75;;;;;24.46;32.93;100991.88;5074562;28;45642;-73
2022/05/15 09:55:27;;;;;;;;;3.00;1.75;;;;;24.60;33.30;100986.88;5074869;28;45588;-74
2022/05/15 09:57:55;;;;;;;;;1.00;1.00;;;;;24.71;32.49;100994.88;5074588;28;46525;-75
2022/05/15 10:00:22;;;;;;;;;0.00;0.00;;;;;24.68;32.15;100978.75;5075094;28;45389;-76
2022/05/15 10:02:52;;;;;;;;;1.00;1.00;;;;;24.74;32.18;100975.41;5060903;28;45259;-74
2022/05/15 10:05:27;;;;;;;;;0.75;0.75;;;;;24.88;31.93;100988.56;5056537;28;46365;-75
2022/05/15 10:07:52;;;;;;;;;2.00;2.00;;;;;24.82;31.98;100959.03;5074577;28;46171;-75
2022/05/15 10:10:24;;;;;;;;;1.75;1.75;;;;;24.96;31.49;100977.69;5074649;28;45831;-75
2022/05/15 10:12:55;;;;;;;;;1.00;1.00;;;;;25.00;31.41;100981.00;5069754;28;46753;-75
2022/05/15 10:15:21;;;;;;;;;1.50;1.50;;;;;25.02;31.67;100977.06;5064073;28;45574;-74
2022/05/15 10:17:54;;;;;;;;;1.75;1.75;;;;;25.03;30.98;100970.53;5071509;28;45657;-72
2022/05/15 10:20:25;;;;;;;;;3.25;1.75;;;;;25.01;30.34;100960.78;5081241;28;45422;-75
2022/05/15 10:23:03;;;;;;;;;1.00;1.00;;;;;25.08;31.25;100959.13;5081514;28;45318;-73
2022/05/15 10:25:36;;;;;;;;;2.25;2.00;;;;;25.18;30.93;100959.84;5080848;28;45597;-75
2022/05/15 10:28:32;;;;;;;;;2.00;2.00;;;;;25.19;31.06;100947.88;5062513;28;46114;-74
2022/05/15 10:31:05;;;;;;;;;3.00;2.00;;;;;25.27;31.58;100961.66;5081502;28;45317;-74
2022/05/15 10:33:36;;;;;;;;;2.25;2.25;;;;;25.34;30.99;100951.78;5080819;28;45454;-74
2022/05/15 10:36:27;;;;;;;;;1.75;1.75;;;;;25.33;31.10;100932.72;5062663;28;45395;-73
2022/05/15 10:39:30;;;;;;;;;1.00;1.00;;;;;25.48;31.46;100959.41;5081049;28;45406;-77
2022/05/15 10:42:43;;;;;;;;;3.00;1.75;;;;;25.54;31.00;100944.16;5081268;28;45359;-75
2022/05/15 10:45:15;;;;;;;;;1.75;1.75;;;;;25.61;31.60;100942.53;5059064;28;45449;-73
2022/05/15 10:48:04;;;;;;;;;4.50;2.75;;;;;25.65;31.40;100946.69;5060980;28;46377;-77
2022/05/15 10:50:43;;;;;;;;;3.00;3.00;;;;;25.66;32.04;100931.06;5077424;28;46340;-75
2022/05/15 11:00:00;;;;;;;;;2.25;1.75;;;;;25.61;31.36;100899.44;5077276;28;45504;-82
2022/05/15 11:02:50;;;;;;;;;2.25;1.00;;;;;25.90;30.67;100923.81;5045867;28;46331;-76
2022/05/15 11:05:40;;;;;;;;;2.00;2.00;;;;;26.01;30.96;100930.91;5059608;28;46291;-74
2022/05/15 11:08:30;;;;;;;;;2.00;2.00;;;;;26.18;30.65;100923.56;5057925;28;45493;-76
2022/05/15 11:11:01;;;;;;;;;1.50;1.50;;;;;26.33;31.11;100925.53;5078044;28;45438;-76
2022/05/15 11:14:00;;;;;;;;;2.75;2.75;;;;;26.52;29.92;100920.78;5071002;28;47248;-75
2022/05/15 11:16:53;;;;;;;;;4.00;2.00;;;;;26.59;29.85;100908.94;5053505;28;45331;-73
2022/05/15 11:19:38;;;;;;;;;6.00;2.75;;;;;26.72;30.49;100912.03;5057355;28;45363;-75
2022/05/15 11:22:25;;;;;;;;;3.00;3.00;;;;;26.85;30.12;100910.66;5080073;28;45231;-71
2022/05/15 11:25:08;;;;;;;;;2.25;2.00;;;;;26.90;29.72;100908.25;5080239;28;46300;-75
2022/05/15 11:27:39;;;;;;;;;1.00;1.00;;;;;26.93;29.25;100902.44;5078161;28;45361;-76
2022/05/15 11:30:12;;;;;;;;;4.00;2.25;;;;;26.93;29.95;100891.44;5077084;28;45516;-75
2022/05/15 11:32:40;;;;;;;;;5.75;3.00;;;;;27.02;29.89;100891.25;5076877;28;45315;-75
2022/05/15 11:35:29;;;;;;;;;2.50;2.50;;;;;27.22;29.32;100891.72;5076876;28;45351;-76
2022/05/15 11:37:57;;;;;;;;;3.50;3.25;;;;;27.36;28.71;100891.03;5077134;28;45261;-75
2022/05/15 11:40:42;;;;;;;;;2.50;2.00;;;;;27.45;28.84;100878.97;5055501;28;45396;-77
2022/05/15 11:43:26;;;;;;;;;3.00;3.00;;;;;27.65;28.11;100890.44;5074830;28;45548;-77
2022/05/15 11:45:55;;;;;;;;;1.00;1.00;;;;;27.73;27.58;100886.84;5077260;28;46703;-77
2022/05/15 11:48:23;;;;;;;;;4.00;3.00;;;;;27.78;27.26;100884.41;5076854;28;45470;-74
2022/05/15 11:50:54;;;;;;;;;1.50;1.50;;;;;27.80;26.35;100876.81;5077054;28;45558;-74
2022/05/15 11:53:43;;;;;;;;;1.25;0.75;;;;;27.83;26.69;100877.31;5076891;28;45400;-79
2022/05/15 11:56:40;;;;;;;;;3.25;3.25;;;;;27.92;26.79;100893.78;5076193;28;45313;-75
2022/05/15 11:59:26;;;;;;;;;3.50;3.00;;;;;28.02;26.47;100889.78;5023515;28;45546;-75
2022/05/15 12:01:51;;;;;;;;;2.00;1.00;;;;;28.13;26.04;100885.78;5076744;28;45405;-72
2022/05/15 12:04:35;;;;;;;;;3.75;2.00;;;;;28.26;26.02;100885.22;5076404;28;45347;-73
2022/05/15 12:07:00;;;;;;;;;1.75;1.75;;;;;28.39;27.06;100874.47;5076667;28;45991;-75
2022/05/15 12:09:28;;;;;;;;;1.75;1.75;;;;;28.43;25.57;100864.75;5076585;28;45561;-76
2022/05/15 12:11:57;;;;;;;;;2.25;2.25;;;;;28.43;26.40;100867.53;5076384;28;45395;-76
2022/05/15 12:14:22;;;;;;;;;1.00;1.00;;;;;28.47;25.66;100861.47;5068351;28;45289;-75
2022/05/15 12:17:13;;;;;;;;;4.50;2.00;;;;;28.56;25.84;100868.66;5055895;28;46178;-73
2022/05/15 12:19:40;;;;;;;;;2.00;2.00;;;;;28.71;25.55;100859.56;5055505;28;45322;-76
2022/05/15 12:22:10;;;;;;;;;2.00;2.00;;;;;28.90;25.64;100851.66;5056081;28;45399;-73
2022/05/15 12:24:39;;;;;;;;;1.00;1.00;;;;;29.18;25.40;100856.53;5056261;28;45390;-75
2022/05/15 12:27:10;;;;;;;;;2.25;1.00;;;;;29.42;24.95;100850.81;5055328;28;45320;-74
2022/05/15 12:29:54;;;;;;;;;1.50;1.50;;;;;29.54;25.00;100835.47;5055811;28;45506;-76
2022/05/15 12:32:43;;;;;;;;;1.75;1.75;;;;;29.44;25.43;100854.22;5068181;28;45276;-75
2022/05/15 12:35:35;;;;;;;;;2.75;2.75;;;;;29.25;24.52;100847.34;5067713;28;45430;-70
2022/05/15 12:38:15;;;;;;;;;1.50;1.50;;;;;29.17;24.78;100852.97;5065540;28;45565;-76
2022/05/15 12:40:56;;;;;;;;;2.50;2.50;;;;;29.08;25.04;100842.19;5074753;28;45802;-78
2022/05/15 12:43:29;;;;;;;;;1.50;1.50;;;;;29.09;24.98;100849.41;5072298;28;45539;-78
2022/05/15 12:45:56;;;;;;;;;2.00;2.00;;;;;29.03;25.57;100847.38;5072888;28;45425;-77
2022/05/15 12:48:22;;;;;;;;;2.00;2.00;;;;;28.97;24.95;100840.72;5067071;28;46433;-79
2022/05/15 12:50:56;;;;;;;;;2.00;1.00;;;;;28.83;25.17;100827.75;5074410;28;45353;-76
2022/05/15 12:53:28;;;;;;;;;2.00;2.00;;;;;28.75;24.87;100825.88;5065286;28;45435;-77
2022/05/15 12:56:06;;;;;;;;;2.00;2.00;;;;;28.71;25.67;100831.97;5053927;28;45468;-75
2022/05/15 12:58:33;;;;;;;;;2.75;2.75;;;;;28.67;25.36;100831.47;5059920;28;45490;-76
2022/05/15 13:01:00;;;;;;;;;3.00;2.00;;;;;28.62;25.60;100820.13;5054485;28;45581;-79
2022/05/15 13:03:26;;;;;;;;;2.00;2.00;;;;;28.65;25.40;100810.63;5058656;28;45484;-82
2022/05/15 13:05:56;;;;;;;;;1.25;1.25;;;;;28.73;25.34;100825.22;5054237;28;45546;-78
2022/05/15 13:08:23;;;;;;;;;2.00;1.75;;;;;28.70;25.86;100819.19;5057304;28;46399;-81
2022/05/15 13:11:02;;;;;;;;;3.00;2.00;;;;;28.65;25.98;100828.06;5053978;28;45226;-79
2022/05/15 13:13:34;;;;;;;;;1.25;1.25;;;;;28.54;25.88;100809.19;5069328;28;45489;-78
2022/05/15 13:16:01;;;;;;;;;3.00;2.00;;;;;28.56;25.50;100810.72;5054398;28;45437;-78
2022/05/15 13:18:30;;;;;;;;;1.75;1.75;;;;;28.48;25.08;100807.16;5055570;28;46193;-80
2022/05/15 13:21:05;;;;;;;;;3.00;2.00;;;;;28.44;25.38;100797.53;5045119;28;45387;-74
2022/05/15 13:23:51;;;;;;;;;5.25;2.75;;;;;28.56;25.02;100810.72;5070361;28;45739;-78
2022/05/15 13:26:27;;;;;;;;;5.25;2.00;;;;;28.51;25.18;100804.88;5074813;28;45580;-76
2022/05/15 13:28:57;;;;;;;;;5.75;2.00;;;;;28.72;25.96;100811.59;5067122;28;46427;-78
2022/05/15 13:31:23;;;;;;;;;3.50;2.00;;;;;28.80;26.16;100809.66;5047798;28;45474;-76
2022/05/15 13:33:53;;;;;;;;;2.75;2.75;;;;;28.73;25.65;100789.34;5073359;28;46159;-77
2022/05/15 13:36:18;;;;;;;;;2.50;2.50;;;;;28.85;25.64;100800.81;5073506;28;45457;-75
2022/05/15 13:44:37;;;;;;;;;1.75;1.75;;;;;29.08;25.78;100778.69;5018435;28;45447;-77
2022/05/15 13:47:06;;;;;;;;;4.50;2.00;;;;;29.23;26.05;100787.81;5062830;28;45506;-78
2022/05/15 13:49:45;;;;;;;;;2.00;2.00;;;;;29.14;25.97;100772.38;5072877;28;46508;-77
2022/05/15 13:52:31;;;;;;;;;2.50;2.50;;;;;29.33;26.47;100783.72;5072741;28;45463;-77
2022/05/15 13:54:59;;;;;;;;;3.00;3.00;;;;;29.53;26.61;100781.25;5062140;28;45853;-74
2022/05/15 13:57:26;;;;;;;;;2.00;2.00;;;;;29.64;26.43;100772.47;5072656;28;45324;-77
2022/05/15 13:59:51;;;;;;;;;3.00;3.00;;;;;29.75;26.22;100765.59;5073708;28;46216;-76
2022/05/15 14:02:28;;;;;;;;;2.75;2.00;;;;;29.71;26.18;100769.78;5070597;28;45417;-77
2022/05/15 14:04:59;;;;;;;;;4.25;3.25;;;;;29.69;26.43;100766.34;5053196;28;45591;-77
2022/05/15 14:07:41;;;;;;;;;4.00;3.00;;;;;29.67;27.01;100758.28;5055805;28;45458;-77
2022/05/15 14:10:18;;;;;;;;;5.25;2.00;;;;;29.66;26.72;100752.94;5059564;28;46422;-77
2022/05/15 14:12:52;;;;;;;;;3.00;3.00;;;;;29.73;27.12;100740.06;5058354;28;45511;-76
2022/05/15 14:15:46;;;;;;;;;2.25;2.00;;;;;29.84;26.82;100744.22;5073206;28;45413;-76
2022/05/15 14:18:20;;;;;;;;;3.00;3.00;;;;;29.89;26.74;100741.72;5072373;28;45488;-77
2022/05/15 14:20:49;;;;;;;;;2.00;2.00;;;;;29.83;26.72;100748.91;5060234;28;45379;-77
2022/05/15 14:23:16;;;;;;;;;4.00;2.00;;;;;29.82;27.31;100732.50;5072556;28;45386;-75
2022/05/15 14:25:44;;;;;;;;;2.50;2.50;;;;;29.84;27.68;100725.72;5073019;28;45225;-77
2022/05/15 14:28:13;;;;;;;;;3.00;3.00;;;;;29.85;27.37;100716.38;5052406;28;45506;-76
2022/05/15 14:30:42;;;;;;;;;4.00;2.75;;;;;29.80;27.69;100702.28;5072262;28;46355;-76
2022/05/15 14:33:08;;;;;;;;;3.75;2.00;;;;;29.71;27.45;100690.50;5071821;28;45683;-76
2022/05/15 14:35:44;;;;;;;;;4.75;3.75;;;;;29.86;27.46;100726.38;5072763;28;45620;-77
2022/05/15 14:38:10;;;;;;;;;4.00;3.00;;;;;29.84;27.29;100713.81;5045924;28;47529;-78
2022/05/15 14:40:36;;;;;;;;;1.75;1.75;;;;;29.82;26.94;100702.09;5063334;28;45815;-76
2022/05/15 14:43:01;;;;;;;;;3.25;3.25;;;;;29.91;26.51;100718.38;5054364;28;46188;-80
2022/05/15 14:45:28;;;;;;;;;2.25;2.25;;;;;29.94;27.27;100725.44;5042613;28;46478;-80
2022/05/15 14:47:59;;;;;;;;;3.50;3.25;;;;;29.88;27.04;100715.97;5055449;28;45572;-75
2022/05/15 14:50:26;;;;;;;;;2.25;2.25;;;;;29.88;27.24;100718.75;5069437;28;45701;-78
2022/05/15 14:52:55;;;;;;;;;2.25;2.00;;;;;29.90;27.37;100708.34;5075538;28;45406;-78
2022/05/15 14:58:06;;;;;;;;;3.50;2.25;;;;;29.78;27.31;100678.66;5061733;28;45398;-80
2022/05/15 15:00:32;;;;;;;;;2.75;2.00;;;;;29.95;28.07;100683.75;5059966;28;45475;-72
2022/05/15 15:03:02;;;;;;;;;3.00;2.25;;;;;30.13;27.85;100686.06;5070204;28;45924;-79
2022/05/15 15:05:44;;;;;;;;;2.00;2.00;;;;;30.17;27.34;100670.78;5077905;28;45434;-74
2022/05/15 15:08:15;;;;;;;;;1.75;1.75;;;;;30.19;27.31;100656.78;5076859;28;45402;-78
2022/05/15 15:10:41;;;;;;;;;2.75;2.75;;;;;30.28;26.65;100673.03;5074255;28;46441;-77
2022/05/15 15:13:07;;;;;;;;;3.25;3.25;;;;;30.30;27.14;100662.59;5058713;28;45439;-74
2022/05/15 15:15:38;;;;;;;;;2.00;2.00;;;;;30.22;26.59;100634.22;5076388;28;45337;-83
2022/05/15 15:18:04;;;;;;;;;2.00;2.00;;;;;30.52;26.62;100654.28;5077356;28;45343;-77
2022/05/15 15:20:29;;;;;;;;;5.00;3.00;;;;;30.69;26.22;100650.16;5075503;28;46189;-78
2022/05/15 15:22:55;;;;;;;;;4.00;3.00;;;;;30.72;26.19;100653.34;5077086;28;45587;-79
2022/05/15 15:25:20;;;;;;;;;2.25;2.25;;;;;30.74;26.18;100642.06;5076222;28;45381;-73
2022/05/15 15:27:45;;;;;;;;;3.00;3.00;;;;;30.74;26.18;100628.22;5075862;28;45465;-83
2022/05/15 15:30:12;;;;;;;;;2.00;2.00;;;;;30.81;26.33;100627.22;5076716;28;45465;-78
2022/05/15 15:32:37;;;;;;;;;2.00;2.00;;;;;30.91;26.42;100618.53;5077495;28;45416;-79
2022/05/15 15:35:03;;;;;;;;;4.00;2.75;;;;;31.07;25.95;100626.50;5077304;28;45287;-77
2022/05/15 15:40:13;;;;;;;;;2.25;2.25;;;;;31.38;25.70;100614.06;5077221;28;45338;-78
2022/05/15 15:42:44;;;;;;;;;4.00;2.75;;;;;31.42;26.80;100598.72;5077297;28;45359;-78
2022/05/15 15:45:10;;;;;;;;;2.50;2.50;;;;;31.61;26.07;100600.69;5059120;28;45538;-77
2022/05/15 15:47:37;;;;;;;;;5.25;3.25;;;;;31.77;25.97;100607.78;5077172;28;45423;-81
2022/05/15 15:50:04;;;;;;;;;4.00;2.00;;;;;31.90;25.07;100603.06;5038248;28;46633;-78
2022/05/15 15:52:31;;;;;;;;;4.00;3.00;;;;;32.02;25.66;100589.44;5071706;28;45488;-77
2022/05/15 15:54:56;;;;;;;;;3.00;3.00;;;;;32.13;24.82;100594.34;5075725;28;45348;-76
2022/05/15 15:57:22;;;;;;;;;3.00;3.00;;;;;32.22;25.56;100587.53;5076400;28;45310;-82
2022/05/15 15:59:47;;;;;;;;;3.00;2.00;;;;;32.32;24.57;100578.78;5076687;28;45654;-81
2022/05/15 16:02:13;;;;;;;;;3.00;3.00;;;;;32.45;24.49;100589.00;5076714;28;45504;-82
2022/05/15 16:04:39;;;;;;;;;2.25;2.25;;;;;32.41;24.37;100569.13;5077446;28;45342;-81
2022/05/15 16:07:05;;;;;;;;;3.00;3.00;;;;;32.49;24.35;100581.94;5080572;28;45178;-80
2022/05/15 16:09:32;;;;;;;;;7.50;3.25;;;;;32.55;24.07;100593.03;5079053;28;45365;-78
2022/05/15 16:11:58;;;;;;;;;2.25;2.25;;;;;32.43;24.47;100568.91;5058725;28;45298;-83
2022/05/15 16:14:25;;;;;;;;;3.25;3.00;;;;;32.62;24.51;100598.56;5067693;28;45311;-84
2022/05/15 16:16:50;;;;;;;;;3.00;3.00;;;;;32.56;24.70;100580.84;5039229;28;46625;-78
2022/05/15 16:19:16;;;;;;;;;2.00;2.00;;;;;32.65;23.99;100596.22;5056864;28;45355;-81
2022/05/15 16:21:50;;;;;;;;;3.50;3.50;;;;;32.77;24.66;100592.78;5056787;28;45466;-83
2022/05/15 16:24:21;;;;;;;;;4.00;3.00;;;;;32.95;24.94;100604.03;5057044;28;45337;-80
2022/05/15 16:26:50;;;;;;;;;2.75;2.75;;;;;33.10;24.12;100596.25;5056067;28;45493;-81
2022/05/15 16:29:16;;;;;;;;;2.25;2.25;;;;;33.17;23.62;100574.03;5056591;28;46282;-78
2022/05/15 16:31:45;;;;;;;;;1.50;1.50;;;;;33.36;23.34;100589.75;5073682;28;45424;-84
2022/05/15 16:34:11;;;;;;;;;1.75;1.75;;;;;33.38;22.67;100585.69;5076919;28;45437;-80
2022/05/15 16:36:36;;;;;;;;;2.25;2.25;;;;;33.43;23.20;100557.22;5076396;28;45515;-81
2022/05/15 16:39:02;;;;;;;;;4.50;3.00;;;;;33.53;23.23;100567.84;5076802;28;45460;-75
2022/05/15 16:41:28;;;;;;;;;2.00;2.00;;;;;33.56;23.59;100567.41;5076490;28;45211;-83
2022/05/15 16:43:56;;;;;;;;;3.00;3.00;;;;;33.60;23.32;100569.47;5056288;28;45315;-76
2022/05/15 16:46:25;;;;;;;;;2.00;2.00;;;;;33.76;23.39;100574.56;5056240;28;45343;-77